Time;durP1;ratioP1;P1;durP2;ratioP2;P2;SDS_P1;SDS_P2;PMS_P1;PMS_P2;Temp;Humidity;BMP_temperature;BMP_pressure;BME280_temperature;BME280_humidity;BME280_pressure;Samples;Min_cycle;Max_cycle;Signal;HPM_P1;HPM_P2
2022/01/10 00:00:10;;;;;;;;;;;10.80;56.10;;;;;;5080090;28;19916;-70
2022/01/10 00:02:35;;;;;;;;;;;10.80;56.10;;;;;;5080135;28;20270;-70
2022/01/10 00:05:01;;;;;;;;;;;10.70;56.20;;;;;;5080005;28;19913;-71
2022/01/10 00:07:27;;;;;;;;;;;10.80;56.20;;;;;;5080001;28;19904;-70
2022/01/10 00:09:52;;;;;;;;;;;10.70;56.10;;;;;;5080019;28;20431;-71
2022/01/10 00:12:18;;;;;;;;;;;10.80;56.20;;;;;;5079946;28;19913;-70
2022/01/10 00:14:44;;;;;;;;;;;10.70;56.20;;;;;;5079889;28;19916;-70
2022/01/10 00:17:09;;;;;;;;;;;10.70;56.20;;;;;;5080003;28;19912;-70
2022/01/10 00:19:35;;;;;;;;;;;10.70;56.30;;;;;;5079828;28;19917;-70
2022/01/10 00:22:00;;;;;;;;;;;10.70;56.30;;;;;;5079879;28;19976;-70
2022/01/10 00:24:26;;;;;;;;;;;10.70;56.30;;;;;;5079853;28;20247;-71
2022/01/10 00:26:52;;;;;;;;;;;10.80;56.30;;;;;;5079830;28;19904;-70
2022/01/10 00:29:17;;;;;;;;;;;10.70;56.20;;;;;;5079744;28;19940;-70
2022/01/10 00:31:43;;;;;;;;;;;10.70;56.30;;;;;;5079740;28;19913;-70
2022/01/10 00:34:10;;;;;;;;;;;10.70;56.30;;;;;;5079812;28;20403;-70
2022/01/10 00:36:36;;;;;;;;;;;10.70;56.30;;;;;;5079700;28;19912;-70
2022/01/10 00:39:03;;;;;;;;;;;10.70;56.40;;;;;;5079682;28;20201;-70
2022/01/10 00:41:28;;;;;;;;;;;10.80;56.20;;;;;;5079679;28;19947;-70
2022/01/10 00:43:54;;;;;;;;;;;10.70;56.20;;;;;;5079673;28;19912;-70
2022/01/10 00:46:19;;;;;;;;;;;10.80;56.20;;;;;;5079660;28;19912;-70
2022/01/10 00:48:45;;;;;;;;;;;10.70;56.20;;;;;;5079649;28;19913;-70
2022/01/10 00:51:11;;;;;;;;;;;10.70;56.20;;;;;;5079515;28;19919;-70
2022/01/10 00:53:36;;;;;;;;;;;10.70;56.20;;;;;;5079595;28;19916;-70
2022/01/10 00:56:02;;;;;;;;;;;10.70;56.20;;;;;;5079511;28;19911;-70
2022/01/10 00:58:28;;;;;;;;;;;10.70;56.20;;;;;;5079400;28;19924;-70
2022/01/10 01:00:54;;;;;;;;;;;10.70;56.30;;;;;;5078059;28;19966;-71
2022/01/10 01:03:19;;;;;;;;;;;10.70;56.20;;;;;;5079413;28;19912;-70
2022/01/10 01:05:45;;;;;;;;;;;10.70;56.20;;;;;;5081163;28;19912;-71
2022/01/10 01:08:14;;;;;;;;;;;10.70;56.30;;;;;;5081907;28;19912;-70
2022/01/10 01:24:01;;;;;;;;;;;10.70;56.30;;;;;;5083027;28;19911;-70
2022/01/10 01:26:27;;;;;;;;;;;10.70;56.30;;;;;;5083006;28;19950;-70
2022/01/10 01:28:53;;;;;;;;;;;10.70;56.30;;;;;;5082886;28;19951;-71
2022/01/10 01:31:19;;;;;;;;;;;10.70;56.20;;;;;;5082895;28;19912;-71
2022/01/10 01:33:45;;;;;;;;;;;10.70;56.30;;;;;;5082825;28;19958;-70
2022/01/10 01:36:10;;;;;;;;;;;10.70;56.40;;;;;;5082781;28;19969;-70
2022/01/10 01:38:37;;;;;;;;;;;10.70;56.30;;;;;;5082715;28;19912;-71
2022/01/10 01:41:40;;;;;;;;;;;10.70;56.20;;;;;;5082652;28;20082;-70
2022/01/10 01:43:55;;;;;;;;;;;10.70;56.10;;;;;;5082371;28;19912;-70
2022/01/10 01:46:21;;;;;;;;;;;10.70;56.20;;;;;;5082630;28;20078;-70
2022/01/10 01:48:47;;;;;;;;;;;10.70;56.30;;;;;;5082594;28;19912;-70
2022/01/10 01:51:13;;;;;;;;;;;10.70;56.30;;;;;;5082511;28;19904;-70
2022/01/10 01:53:38;;;;;;;;;;;10.60;56.40;;;;;;5082434;28;19974;-70
2022/01/10 01:56:05;;;;;;;;;;;10.60;56.40;;;;;;5082391;28;19987;-70
2022/01/10 01:58:31;;;;;;;;;;;10.60;56.40;;;;;;5082214;28;19932;-71
2022/01/10 02:00:56;;;;;;;;;;;10.60;57.00;;;;;;5082348;28;19916;-69
2022/01/10 02:03:22;;;;;;;;;;;10.60;56.40;;;;;;5082259;28;19912;-69
2022/01/10 02:05:47;;;;;;;;;;;10.60;56.40;;;;;;5082324;28;20108;-71
2022/01/10 02:08:13;;;;;;;;;;;10.60;56.40;;;;;;5082250;28;19913;-71
2022/01/10 02:10:39;;;;;;;;;;;10.70;56.30;;;;;;5082252;28;19913;-70
2022/01/10 02:13:04;;;;;;;;;;;10.60;56.30;;;;;;5082147;28;19970;-70
2022/01/10 02:15:36;;;;;;;;;;;10.60;56.40;;;;;;5082078;28;19913;-69
2022/01/10 02:18:03;;;;;;;;;;;10.60;56.30;;;;;;5080975;28;19975;-70
2022/01/10 02:20:30;;;;;;;;;;;10.70;56.30;;;;;;5080654;28;20262;-70
2022/01/10 02:22:56;;;;;;;;;;;10.70;56.30;;;;;;5082232;28;20447;-70
2022/01/10 02:25:22;;;;;;;;;;;10.70;56.20;;;;;;5081827;28;19985;-69
2022/01/10 02:27:48;;;;;;;;;;;10.70;56.10;;;;;;5080577;28;19905;-70
2022/01/10 02:30:14;;;;;;;;;;;10.70;56.20;;;;;;5081842;28;19912;-70
2022/01/10 02:32:39;;;;;;;;;;;10.70;56.30;;;;;;5081774;28;19913;-69
2022/01/10 02:35:16;;;;;;;;;;;10.60;56.40;;;;;;5081692;28;19912;-69
2022/01/10 02:37:42;;;;;;;;;;;10.60;56.40;;;;;;5081682;28;19963;-69
2022/01/10 02:40:13;;;;;;;;;;;10.60;56.40;;;;;;5081537;28;20208;-69
2022/01/10 02:42:39;;;;;;;;;;;10.60;56.40;;;;;;5081635;28;20200;-69
2022/01/10 02:45:04;;;;;;;;;;;10.60;56.50;;;;;;5081493;28;19912;-70
2022/01/10 02:47:31;;;;;;;;;;;10.60;56.40;;;;;;5081424;28;19912;-70
2022/01/10 02:49:56;;;;;;;;;;;10.60;56.40;;;;;;5081477;28;19944;-69
2022/01/10 02:52:22;;;;;;;;;;;10.60;56.40;;;;;;5080096;28;19912;-70
2022/01/10 02:54:48;;;;;;;;;;;10.60;56.50;;;;;;5081292;28;19920;-69
2022/01/10 02:57:13;;;;;;;;;;;10.60;56.50;;;;;;5081331;28;19916;-70
2022/01/10 02:59:39;;;;;;;;;;;10.60;56.40;;;;;;5081029;28;20235;-70
2022/01/10 03:02:07;;;;;;;;;;;10.60;56.40;;;;;;5081169;28;19912;-70
2022/01/10 03:04:33;;;;;;;;;;;10.70;56.40;;;;;;5081088;28;19908;-70
2022/01/10 03:06:58;;;;;;;;;;;10.70;56.30;;;;;;5081139;28;19913;-70
2022/01/10 03:09:24;;;;;;;;;;;10.70;56.20;;;;;;5081010;28;19938;-69
2022/01/10 03:11:50;;;;;;;;;;;10.70;56.30;;;;;;5080994;28;19912;-70
2022/01/10 03:14:16;;;;;;;;;;;10.60;56.30;;;;;;5079605;28;19950;-70
2022/01/10 03:16:42;;;;;;;;;;;10.60;57.00;;;;;;5080819;28;20147;-70
2022/01/10 03:19:07;;;;;;;;;;;10.60;56.40;;;;;;5080845;28;19904;-70
2022/01/10 03:21:35;;;;;;;;;;;10.60;56.40;;;;;;5080677;28;19944;-69
2022/01/10 03:24:01;;;;;;;;;;;10.60;56.40;;;;;;5080681;28;19989;-70
2022/01/10 03:26:27;;;;;;;;;;;10.60;56.40;;;;;;5080733;28;19916;-70
2022/01/10 03:28:53;;;;;;;;;;;10.60;56.40;;;;;;5080457;28;19950;-70
2022/01/10 03:31:19;;;;;;;;;;;10.60;56.50;;;;;;5080637;28;19912;-69
2022/01/10 03:33:45;;;;;;;;;;;10.60;56.50;;;;;;5080520;28;19940;-69
2022/01/10 03:36:10;;;;;;;;;;;10.50;56.50;;;;;;5080525;28;19920;-70
2022/01/10 03:38:36;;;;;;;;;;;10.60;56.50;;;;;;5080480;28;19913;-69
2022/01/10 03:41:01;;;;;;;;;;;10.60;56.50;;;;;;5080353;28;20093;-70
2022/01/10 03:43:27;;;;;;;;;;;10.60;56.50;;;;;;5080373;28;19946;-69
2022/01/10 03:45:53;;;;;;;;;;;10.60;56.40;;;;;;5080349;28;19920;-69
2022/01/10 03:48:19;;;;;;;;;;;10.60;56.40;;;;;;5080287;28;19983;-70
2022/01/10 03:50:44;;;;;;;;;;;10.60;57.10;;;;;;5080293;28;20209;-70
2022/01/10 03:53:10;;;;;;;;;;;10.60;56.50;;;;;;5080251;28;19979;-70
2022/01/10 03:55:35;;;;;;;;;;;10.60;56.50;;;;;;5080228;28;20298;-69
2022/01/10 03:58:01;;;;;;;;;;;10.60;56.50;;;;;;5079949;28;19923;-70
2022/01/10 04:00:27;;;;;;;;;;;10.60;56.50;;;;;;5080149;28;19936;-70
2022/01/10 04:02:58;;;;;;;;;;;10.60;56.50;;;;;;5078739;28;20250;-70
2022/01/10 04:05:24;;;;;;;;;;;10.60;56.50;;;;;;5080077;28;19917;-70
2022/01/10 04:07:50;;;;;;;;;;;10.50;56.40;;;;;;5080074;28;19919;-69
2022/01/10 04:10:18;;;;;;;;;;;10.60;56.50;;;;;;5080077;28;19934;-70
2022/01/10 04:12:44;;;;;;;;;;;10.60;56.50;;;;;;5079938;28;19947;-70
2022/01/10 04:15:10;;;;;;;;;;;10.50;56.40;;;;;;5079942;28;19912;-70
2022/01/10 04:17:35;;;;;;;;;;;10.60;56.50;;;;;;5079922;28;19912;-71
2022/01/10 04:20:02;;;;;;;;;;;10.60;56.50;;;;;;5079785;28;19916;-70
2022/01/10 04:22:27;;;;;;;;;;;10.60;56.50;;;;;;5079854;28;19905;-69
2022/01/10 04:24:53;;;;;;;;;;;10.60;56.50;;;;;;5078567;28;20310;-70
2022/01/10 04:27:18;;;;;;;;;;;10.50;56.50;;;;;;5079802;28;19920;-70
2022/01/10 04:29:44;;;;;;;;;;;10.60;56.50;;;;;;5079784;28;20270;-70
2022/01/10 04:32:12;;;;;;;;;;;10.50;56.50;;;;;;5079760;28;20150;-70
2022/01/10 04:34:37;;;;;;;;;;;10.60;56.50;;;;;;5079793;28;19927;-70
2022/01/10 04:37:03;;;;;;;;;;;10.60;56.50;;;;;;5079688;28;20209;-70
2022/01/10 04:39:29;;;;;;;;;;;10.60;56.50;;;;;;5079675;28;20131;-70
2022/01/10 04:41:54;;;;;;;;;;;10.60;56.50;;;;;;5083411;28;20029;-70
2022/01/10 04:44:20;;;;;;;;;;;10.60;56.50;;;;;;5083841;28;19919;-70
2022/01/10 04:46:45;;;;;;;;;;;10.60;56.50;;;;;;5083798;28;20452;-70
2022/01/10 04:49:21;;;;;;;;;;;10.60;56.50;;;;;;5083739;28;19913;-70
2022/01/10 04:51:47;;;;;;;;;;;10.50;56.40;;;;;;5083707;28;19986;-70
2022/01/10 04:54:13;;;;;;;;;;;10.50;56.50;;;;;;5083627;28;19915;-70
2022/01/10 04:56:38;;;;;;;;;;;10.50;56.50;;;;;;5083616;28;19912;-70
2022/01/10 04:59:04;;;;;;;;;;;10.50;56.60;;;;;;5083352;28;19924;-70
2022/01/10 05:01:29;;;;;;;;;;;10.50;56.60;;;;;;5083434;28;20053;-70
2022/01/10 05:03:55;;;;;;;;;;;10.50;56.50;;;;;;5083390;28;19962;-70
2022/01/10 05:06:21;;;;;;;;;;;10.50;56.60;;;;;;5082110;28;19913;-70
2022/01/10 05:08:46;;;;;;;;;;;10.50;56.60;;;;;;5083332;28;19980;-70
2022/01/10 05:11:12;;;;;;;;;;;10.50;56.60;;;;;;5083237;28;19912;-70
2022/01/10 05:13:38;;;;;;;;;;;10.50;56.50;;;;;;5083257;28;20139;-70
2022/01/10 05:16:04;;;;;;;;;;;10.50;56.50;;;;;;5081918;28;19944;-70
2022/01/10 05:18:31;;;;;;;;;;;10.60;56.50;;;;;;5083144;28;19920;-70
2022/01/10 05:20:56;;;;;;;;;;;10.50;56.40;;;;;;5083043;28;19920;-69
2022/01/10 05:23:22;;;;;;;;;;;10.50;56.40;;;;;;5082978;28;19962;-70
2022/01/10 05:25:47;;;;;;;;;;;10.60;56.50;;;;;;5081720;28;19920;-69
2022/01/10 05:28:15;;;;;;;;;;;10.60;56.40;;;;;;5082841;28;20261;-70
2022/01/10 05:30:41;;;;;;;;;;;10.60;56.40;;;;;;5082838;28;19912;-70
2022/01/10 05:33:07;;;;;;;;;;;10.60;56.40;;;;;;5082881;28;19920;-70
2022/01/10 05:35:34;;;;;;;;;;;10.60;56.50;;;;;;5082785;28;19919;-70
2022/01/10 05:37:59;;;;;;;;;;;10.50;56.40;;;;;;5082719;28;19912;-70
2022/01/10 05:40:25;;;;;;;;;;;10.50;56.60;;;;;;5082687;28;20228;-70
2022/01/10 05:42:51;;;;;;;;;;;10.50;56.60;;;;;;5082621;28;19912;-69
2022/01/10 05:45:17;;;;;;;;;;;10.50;56.50;;;;;;5082565;28;19905;-70
2022/01/10 05:47:44;;;;;;;;;;;10.50;56.50;;;;;;5082514;28;19919;-70
2022/01/10 05:50:12;;;;;;;;;;;10.50;56.50;;;;;;5081299;28;19912;-69
2022/01/10 05:52:37;;;;;;;;;;;10.50;56.60;;;;;;5081156;28;19904;-69
2022/01/10 05:55:04;;;;;;;;;;;10.50;56.50;;;;;;5082481;28;20107;-70
2022/01/10 05:57:29;;;;;;;;;;;10.50;56.50;;;;;;5082474;28;20209;-69
2022/01/10 05:59:55;;;;;;;;;;;10.50;56.50;;;;;;5082159;28;19932;-69
2022/01/10 06:02:21;;;;;;;;;;;10.50;56.60;;;;;;5082298;28;20184;-71
2022/01/10 06:04:46;;;;;;;;;;;10.50;56.70;;;;;;5082379;28;20131;-70
2022/01/10 06:07:13;;;;;;;;;;;10.50;56.60;;;;;;5082217;28;20188;-70
2022/01/10 06:09:38;;;;;;;;;;;10.50;56.50;;;;;;5082296;28;19936;-69
2022/01/10 06:12:04;;;;;;;;;;;10.60;56.50;;;;;;5082084;28;20486;-70
2022/01/10 06:14:30;;;;;;;;;;;10.50;56.40;;;;;;5082117;28;19916;-69
2022/01/10 06:16:56;;;;;;;;;;;10.50;56.40;;;;;;5082089;28;19919;-69
2022/01/10 06:19:21;;;;;;;;;;;10.50;56.50;;;;;;5081963;28;19953;-70
2022/01/10 06:21:47;;;;;;;;;;;10.50;56.50;;;;;;5082021;28;19915;-69
2022/01/10 06:24:12;;;;;;;;;;;10.50;56.60;;;;;;5081975;28;19913;-70
2022/01/10 06:26:38;;;;;;;;;;;10.50;56.60;;;;;;5081950;28;20334;-70
2022/01/10 06:29:04;;;;;;;;;;;10.50;56.60;;;;;;5081750;28;19920;-70
2022/01/10 06:31:29;;;;;;;;;;;10.50;56.60;;;;;;5081844;28;19912;-68
2022/01/10 06:33:55;;;;;;;;;;;10.50;56.70;;;;;;5081723;28;20312;-70
2022/01/10 06:36:21;;;;;;;;;;;10.50;56.60;;;;;;5081677;28;19919;-70
2022/01/10 06:38:46;;;;;;;;;;;10.50;56.70;;;;;;5081710;28;20197;-70
2022/01/10 06:41:12;;;;;;;;;;;10.50;56.70;;;;;;5081495;28;19908;-70
2022/01/10 06:43:39;;;;;;;;;;;10.50;56.70;;;;;;5081584;28;19919;-71
2022/01/10 06:46:05;;;;;;;;;;;10.50;56.70;;;;;;5081507;28;19954;-70
2022/01/10 06:48:31;;;;;;;;;;;10.50;56.60;;;;;;5081434;28;19984;-70
2022/01/10 06:50:56;;;;;;;;;;;10.50;56.60;;;;;;5081374;28;19912;-70
2022/01/10 06:53:22;;;;;;;;;;;10.50;56.60;;;;;;5081348;28;20230;-70
2022/01/10 06:55:48;;;;;;;;;;;10.50;56.60;;;;;;5081362;28;19954;-70
2022/01/10 06:58:14;;;;;;;;;;;10.50;56.60;;;;;;5081037;28;19925;-70
2022/01/10 07:00:40;;;;;;;;;;;10.50;56.50;;;;;;5081183;28;19987;-70
2022/01/10 07:03:06;;;;;;;;;;;10.50;56.50;;;;;;5080612;28;19912;-70
2022/01/10 07:05:32;;;;;;;;;;;10.50;56.50;;;;;;5079780;28;19942;-70
2022/01/10 07:07:57;;;;;;;;;;;10.50;56.50;;;;;;5081058;28;19919;-70
2022/01/10 07:10:23;;;;;;;;;;;10.50;56.50;;;;;;5080992;28;19916;-70
2022/01/10 07:12:49;;;;;;;;;;;10.50;56.60;;;;;;5080945;28;19912;-70
2022/01/10 07:15:14;;;;;;;;;;;10.50;56.60;;;;;;5080901;28;20384;-70
2022/01/10 07:17:40;;;;;;;;;;;10.50;56.60;;;;;;5080878;28;20224;-69
2022/01/10 07:20:06;;;;;;;;;;;10.50;56.50;;;;;;5080776;28;19916;-71
2022/01/10 07:22:31;;;;;;;;;;;10.50;56.60;;;;;;5080736;28;19918;-69
2022/01/10 07:24:57;;;;;;;;;;;10.50;56.60;;;;;;5080748;28;19938;-70
2022/01/10 07:27:23;;;;;;;;;;;10.50;56.60;;;;;;5080714;28;19955;-70
2022/01/10 07:29:50;;;;;;;;;;;10.50;56.60;;;;;;5080615;28;19975;-69
2022/01/10 07:32:16;;;;;;;;;;;10.50;56.50;;;;;;5080655;28;20458;-69
2022/01/10 07:34:43;;;;;;;;;;;10.50;56.50;;;;;;5080554;28;20188;-69
2022/01/10 07:37:09;;;;;;;;;;;10.50;56.50;;;;;;5080552;28;19913;-69
2022/01/10 07:39:35;;;;;;;;;;;10.50;56.50;;;;;;5080325;28;19961;-70
2022/01/10 07:42:00;;;;;;;;;;;10.50;56.50;;;;;;5080534;28;20227;-70
2022/01/10 07:44:26;;;;;;;;;;;10.50;56.40;;;;;;5080471;28;19913;-70
2022/01/10 07:46:51;;;;;;;;;;;10.50;56.40;;;;;;5080338;28;19911;-69
2022/01/10 07:49:17;;;;;;;;;;;10.50;56.50;;;;;;5080347;28;19912;-70
2022/01/10 07:51:43;;;;;;;;;;;10.50;56.50;;;;;;5080221;28;19979;-69
2022/01/10 07:54:08;;;;;;;;;;;10.50;56.50;;;;;;5080247;28;19987;-69
2022/01/10 07:56:34;;;;;;;;;;;10.50;56.40;;;;;;5080127;28;19989;-70
2022/01/10 07:58:59;;;;;;;;;;;10.60;56.50;;;;;;5079945;28;19924;-69
2022/01/10 08:01:25;;;;;;;;;;;10.60;56.40;;;;;;5080082;28;19920;-70
2022/01/10 08:03:51;;;;;;;;;;;10.60;56.40;;;;;;5080121;28;19917;-70
2022/01/10 08:06:18;;;;;;;;;;;10.60;56.30;;;;;;5080058;28;19904;-70
2022/01/10 08:08:43;;;;;;;;;;;10.70;56.30;;;;;;5078679;28;20113;-70
2022/01/10 08:11:09;;;;;;;;;;;10.60;56.10;;;;;;5080048;28;19999;-69
2022/01/10 08:13:35;;;;;;;;;;;10.70;56.10;;;;;;5078672;28;19955;-70
2022/01/10 08:16:00;;;;;;;;;;;10.80;56.00;;;;;;5077819;28;20248;-70
2022/01/10 08:18:26;;;;;;;;;;;10.90;55.80;;;;;;5079938;28;19912;-70
2022/01/10 08:20:52;;;;;;;;;;;10.90;55.50;;;;;;5079777;28;19908;-69
2022/01/10 08:23:17;;;;;;;;;;;11.00;55.40;;;;;;5079805;28;19916;-69
2022/01/10 08:25:43;;;;;;;;;;;11.10;55.20;;;;;;5079792;28;19912;-70
2022/01/10 08:28:09;;;;;;;;;;;11.10;55.00;;;;;;5078484;28;19920;-70
2022/01/10 08:30:35;;;;;;;;;;;11.10;54.90;;;;;;5079777;28;19923;-69
2022/01/10 08:33:00;;;;;;;;;;;11.10;55.00;;;;;;5079717;28;20456;-70
2022/01/10 08:35:26;;;;;;;;;;;11.10;55.00;;;;;;5079702;28;20201;-69
2022/01/10 08:37:52;;;;;;;;;;;11.10;55.10;;;;;;5079684;28;19904;-69
2022/01/10 08:40:18;;;;;;;;;;;11.10;55.10;;;;;;5078401;28;19916;-70
2022/01/10 08:42:43;;;;;;;;;;;11.10;55.10;;;;;;5079704;28;19916;-69
2022/01/10 08:45:09;;;;;;;;;;;11.10;55.20;;;;;;5079707;28;20208;-70
2022/01/10 08:47:35;;;;;;;;;;;11.10;55.20;;;;;;5079626;28;19917;-70
2022/01/10 08:50:01;;;;;;;;;;;11.10;55.20;;;;;;5079570;28;20227;-70
2022/01/10 08:52:26;;;;;;;;;;;11.10;55.20;;;;;;5079590;28;19912;-69
2022/01/10 08:54:52;;;;;;;;;;;11.10;55.20;;;;;;5078246;28;19941;-70
2022/01/10 08:57:18;;;;;;;;;;;11.10;55.30;;;;;;5079519;28;19943;-70
2022/01/10 08:59:43;;;;;;;;;;;11.20;55.20;;;;;;5079311;28;20441;-70
2022/01/10 09:02:12;;;;;;;;;;;11.30;55.00;;;;;;5079447;28;19940;-70
2022/01/10 09:04:38;;;;;;;;;;;11.30;54.70;;;;;;5079565;28;19945;-70
2022/01/10 09:07:05;;;;;;;;;;;11.30;54.70;;;;;;5079391;28;19920;-70
2022/01/10 09:09:31;;;;;;;;;;;11.30;54.60;;;;;;5079382;28;19912;-70
2022/01/10 09:11:57;;;;;;;;;;;11.40;54.70;;;;;;5079358;28;19908;-70
2022/01/10 09:14:23;;;;;;;;;;;11.40;54.60;;;;;;5079266;28;19913;-70
2022/01/10 09:16:48;;;;;;;;;;;11.40;54.60;;;;;;5079315;28;19913;-70
2022/01/10 09:19:14;;;;;;;;;;;11.40;54.60;;;;;;5079247;28;19983;-70
2022/01/10 09:21:40;;;;;;;;;;;11.30;54.50;;;;;;5079183;28;19917;-70
2022/01/10 09:24:05;;;;;;;;;;;11.30;54.80;;;;;;5079230;28;20446;-70
2022/01/10 09:26:31;;;;;;;;;;;11.20;55.00;;;;;;5080413;28;19913;-70
2022/01/10 09:28:57;;;;;;;;;;;11.20;55.10;;;;;;5082951;28;19904;-71
2022/01/10 09:31:23;;;;;;;;;;;11.20;55.30;;;;;;5082906;28;19991;-70
2022/01/10 09:33:55;;;;;;;;;;;11.20;55.30;;;;;;5082935;28;20306;-69
2022/01/10 09:36:24;;;;;;;;;;;11.20;55.40;;;;;;5082852;28;19905;-70
2022/01/10 09:38:50;;;;;;;;;;;11.20;55.30;;;;;;5082890;28;19920;-71
2022/01/10 09:41:16;;;;;;;;;;;11.20;55.20;;;;;;5082705;28;19916;-70
2022/01/10 09:43:47;;;;;;;;;;;11.20;55.20;;;;;;5082689;28;19954;-70
2022/01/10 09:46:13;;;;;;;;;;;11.30;55.20;;;;;;5082665;28;19947;-70
2022/01/10 09:48:39;;;;;;;;;;;11.30;55.00;;;;;;5082661;28;19912;-70
2022/01/10 09:51:04;;;;;;;;;;;11.40;54.90;;;;;;5083087;28;19944;-70
2022/01/10 09:53:30;;;;;;;;;;;11.40;54.80;;;;;;5082563;28;20484;-70
2022/01/10 09:55:56;;;;;;;;;;;11.40;54.60;;;;;;5082515;28;20379;-70
2022/01/10 09:58:22;;;;;;;;;;;11.40;54.80;;;;;;5082279;28;19920;-69
2022/01/10 10:00:48;;;;;;;;;;;11.40;54.80;;;;;;5082370;28;19916;-70
2022/01/10 10:03:20;;;;;;;;;;;11.40;54.70;;;;;;5082355;28;19912;-70
2022/01/10 10:05:45;;;;;;;;;;;11.50;54.70;;;;;;5082366;28;19979;-70
2022/01/10 10:08:11;;;;;;;;;;;11.40;54.80;;;;;;5082228;28;19919;-70
2022/01/10 10:10:36;;;;;;;;;;;11.30;54.90;;;;;;5082168;28;20014;-70
2022/01/10 10:13:02;;;;;;;;;;;11.30;55.20;;;;;;5082232;28;20215;-70
2022/01/10 10:15:31;;;;;;;;;;;11.30;55.20;;;;;;5082136;28;19912;-70
2022/01/10 10:17:56;;;;;;;;;;;11.30;55.40;;;;;;5082114;28;19919;-70
2022/01/10 10:20:23;;;;;;;;;;;11.30;55.30;;;;;;5081991;28;19908;-70
2022/01/10 10:22:53;;;;;;;;;;;11.30;55.10;;;;;;5082024;28;19921;-70
2022/01/10 10:25:20;;;;;;;;;;;11.30;55.30;;;;;;5082030;28;20208;-70
2022/01/10 10:27:46;;;;;;;;;;;11.40;55.30;;;;;;5081927;28;19912;-70
2022/01/10 10:30:14;;;;;;;;;;;11.30;55.30;;;;;;5081847;28;19904;-71
2022/01/10 10:32:39;;;;;;;;;;;11.30;55.20;;;;;;5081785;28;19909;-70
2022/01/10 10:35:06;;;;;;;;;;;11.30;55.40;;;;;;5081808;28;20204;-70
2022/01/10 10:37:35;;;;;;;;;;;11.40;55.30;;;;;;5081027;28;19940;-69
2022/01/10 10:40:03;;;;;;;;;;;11.40;55.50;;;;;;5081397;28;19916;-70
2022/01/10 10:42:29;;;;;;;;;;;11.30;55.40;;;;;;5081709;28;19912;-70
2022/01/10 10:44:55;;;;;;;;;;;11.40;55.40;;;;;;5081619;28;19904;-70
2022/01/10 10:47:25;;;;;;;;;;;11.40;55.30;;;;;;5081539;28;19912;-71
2022/01/10 10:49:56;;;;;;;;;;;11.40;55.20;;;;;;5081466;28;19912;-70
2022/01/10 10:52:21;;;;;;;;;;;11.40;55.20;;;;;;5081415;28;19912;-70
2022/01/10 10:54:47;;;;;;;;;;;11.40;55.10;;;;;;5081462;28;19912;-69
2022/01/10 10:57:14;;;;;;;;;;;11.50;55.20;;;;;;5081359;28;20098;-69
2022/01/10 10:59:43;;;;;;;;;;;11.50;55.20;;;;;;5080982;28;19990;-70
2022/01/10 11:02:10;;;;;;;;;;;11.50;55.20;;;;;;5081189;28;19919;-70
2022/01/10 11:04:35;;;;;;;;;;;11.50;55.10;;;;;;5081216;28;19905;-70
2022/01/10 11:07:02;;;;;;;;;;;11.50;55.10;;;;;;5081180;28;19919;-69
2022/01/10 11:09:28;;;;;;;;;;;11.50;55.10;;;;;;5081191;28;20100;-70
2022/01/10 11:11:53;;;;;;;;;;;11.50;55.20;;;;;;5080999;28;19948;-70
2022/01/10 11:14:22;;;;;;;;;;;11.50;55.20;;;;;;5081072;28;19983;-70
2022/01/10 11:16:49;;;;;;;;;;;11.50;55.40;;;;;;5081001;28;19912;-69
2022/01/10 11:19:18;;;;;;;;;;;11.50;55.40;;;;;;5080935;28;19979;-74
2022/01/10 11:21:54;;;;;;;;;;;11.50;55.30;;;;;;5079465;28;19916;-71
2022/01/10 11:24:53;;;;;;;;;;;11.50;55.30;;;;;;5080915;28;20238;-70
2022/01/10 11:27:27;;;;;;;;;;;11.60;55.20;;;;;;5090296;28;20205;-70
2022/01/10 11:29:55;;;;;;;;;;;11.60;55.30;;;;;;5080713;28;19919;-69
2022/01/10 11:32:21;;;;;;;;;;;11.60;55.30;;;;;;5080681;28;19944;-70
2022/01/10 11:34:47;;;;;;;;;;;11.60;55.30;;;;;;5080722;28;20163;-70
2022/01/10 11:37:12;;;;;;;;;;;11.60;55.30;;;;;;5080599;28;20101;-70
2022/01/10 11:39:39;;;;;;;;;;;11.60;55.30;;;;;;5080531;28;19913;-70
2022/01/10 11:42:21;;;;;;;;;;;11.60;55.30;;;;;;5080551;28;19935;-70
2022/01/10 11:45:06;;;;;;;;;;;11.60;55.30;;;;;;5080479;28;19904;-70
2022/01/10 11:47:52;;;;;;;;;;;11.60;55.30;;;;;;5080429;28;19912;-69
2022/01/10 11:50:25;;;;;;;;;;;11.50;55.60;;;;;;5080159;28;19912;-70
2022/01/10 11:52:55;;;;;;;;;;;11.50;55.50;;;;;;5079141;28;19912;-71
2022/01/10 11:55:30;;;;;;;;;;;11.50;55.60;;;;;;5080276;28;19919;-71
2022/01/10 11:58:13;;;;;;;;;;;11.50;55.70;;;;;;5080275;28;19909;-70
2022/01/10 12:00:38;;;;;;;;;;;11.50;55.80;;;;;;5080268;28;19962;-70
2022/01/10 12:03:04;;;;;;;;;;;11.50;55.70;;;;;;5080231;28;19913;-69
2022/01/10 12:05:30;;;;;;;;;;;11.50;55.60;;;;;;5080146;28;19912;-70
2022/01/10 12:07:56;;;;;;;;;;;11.60;55.60;;;;;;5080175;28;19954;-69
2022/01/10 12:10:21;;;;;;;;;;;11.60;55.50;;;;;;5080071;28;19905;-70
2022/01/10 12:12:50;;;;;;;;;;;11.60;55.50;;;;;;5080117;28;20181;-69
2022/01/10 12:15:16;;;;;;;;;;;11.60;55.40;;;;;;5080090;28;19912;-70
2022/01/10 12:17:42;;;;;;;;;;;11.60;55.50;;;;;;5080016;28;19905;-70
2022/01/10 12:20:08;;;;;;;;;;;11.60;55.50;;;;;;5079847;28;19916;-69
2022/01/10 12:22:34;;;;;;;;;;;11.60;55.40;;;;;;5079891;28;19912;-70
2022/01/10 12:25:01;;;;;;;;;;;11.60;55.40;;;;;;5079954;28;19912;-70
2022/01/10 12:27:27;;;;;;;;;;;11.60;55.50;;;;;;5078757;28;19904;-70
2022/01/10 12:29:52;;;;;;;;;;;11.60;55.50;;;;;;5079870;28;19913;-68
2022/01/10 12:32:18;;;;;;;;;;;11.60;55.40;;;;;;5079908;28;20520;-71
2022/01/10 12:34:45;;;;;;;;;;;11.60;55.50;;;;;;5079878;28;20112;-69
2022/01/10 12:37:11;;;;;;;;;;;11.50;55.50;;;;;;5079799;28;19913;-70
2022/01/10 12:39:37;;;;;;;;;;;11.50;55.60;;;;;;5079791;28;19911;-70
2022/01/10 12:42:03;;;;;;;;;;;11.50;55.60;;;;;;5078465;28;19912;-69
2022/01/10 12:44:29;;;;;;;;;;;11.60;55.40;;;;;;5079773;28;19981;-70
2022/01/10 12:46:55;;;;;;;;;;;11.60;55.40;;;;;;5079920;28;19912;-69
2022/01/10 12:49:21;;;;;;;;;;;11.60;55.30;;;;;;5079686;28;20125;-69
2022/01/10 12:51:47;;;;;;;;;;;11.60;55.20;;;;;;5079645;28;19911;-70
2022/01/10 12:54:14;;;;;;;;;;;11.60;55.30;;;;;;5079647;28;20313;-69
2022/01/10 12:56:41;;;;;;;;;;;11.60;55.20;;;;;;5079615;28;20232;-69
2022/01/10 12:59:06;;;;;;;;;;;11.60;55.30;;;;;;5078335;28;19999;-69
2022/01/10 13:01:32;;;;;;;;;;;11.60;55.50;;;;;;5081039;28;20391;-70
2022/01/10 13:03:59;;;;;;;;;;;11.60;55.50;;;;;;5083752;28;19912;-69
2022/01/10 13:06:26;;;;;;;;;;;11.60;55.40;;;;;;5083591;28;19912;-70
2022/01/10 13:08:55;;;;;;;;;;;11.60;55.40;;;;;;5083265;28;19954;-70
2022/01/10 13:11:23;;;;;;;;;;;11.60;55.40;;;;;;5083559;28;19911;-70
2022/01/10 13:13:48;;;;;;;;;;;11.60;55.40;;;;;;5083645;28;19935;-70
2022/01/10 13:16:20;;;;;;;;;;;11.60;55.50;;;;;;5083495;28;20211;-70
2022/01/10 13:19:00;;;;;;;;;;;11.60;55.30;;;;;;5083547;28;19944;-70
2022/01/10 13:21:39;;;;;;;;;;;11.70;55.40;;;;;;5083318;28;19923;-70
2022/01/10 13:24:05;;;;;;;;;;;11.70;55.20;;;;;;5083425;28;20299;-70
2022/01/10 13:26:31;;;;;;;;;;;11.70;55.20;;;;;;5083276;28;19912;-71
2022/01/10 13:28:56;;;;;;;;;;;11.70;55.20;;;;;;5083276;28;19904;-70
2022/01/10 13:31:33;;;;;;;;;;;11.70;55.20;;;;;;5083234;28;19905;-70
2022/01/10 13:33:59;;;;;;;;;;;11.70;55.30;;;;;;5083285;28;19934;-69
2022/01/10 13:36:24;;;;;;;;;;;11.60;55.40;;;;;;5083184;28;20210;-70
2022/01/10 13:38:50;;;;;;;;;;;11.60;55.40;;;;;;5083122;28;19912;-70
2022/01/10 13:41:16;;;;;;;;;;;11.60;55.60;;;;;;5083051;28;19993;-71
2022/01/10 13:43:41;;;;;;;;;;;11.70;55.70;;;;;;5082976;28;20188;-70
2022/01/10 13:46:16;;;;;;;;;;;11.70;55.60;;;;;;5081823;28;19943;-70
2022/01/10 13:48:41;;;;;;;;;;;11.60;55.50;;;;;;5081610;28;20228;-70
2022/01/10 13:51:12;;;;;;;;;;;11.60;55.60;;;;;;5082919;28;19948;-70
2022/01/10 13:53:44;;;;;;;;;;;11.60;55.60;;;;;;5082910;28;19928;-70
2022/01/10 13:56:10;;;;;;;;;;;11.70;55.50;;;;;;5083092;28;19913;-70
2022/01/10 13:58:36;;;;;;;;;;;11.70;55.40;;;;;;5081383;28;19912;-70
2022/01/10 14:01:03;;;;;;;;;;;11.80;55.30;;;;;;5082740;28;19975;-70
2022/01/10 14:03:30;;;;;;;;;;;11.80;55.40;;;;;;5082769;28;19931;-70
2022/01/10 14:06:06;;;;;;;;;;;11.80;55.20;;;;;;5082611;28;19912;-70
2022/01/10 14:08:32;;;;;;;;;;;11.80;55.20;;;;;;5082640;28;19916;-69
2022/01/10 14:11:01;;;;;;;;;;;11.80;55.20;;;;;;5082578;28;19950;-70
2022/01/10 14:13:27;;;;;;;;;;;11.80;55.40;;;;;;5081211;28;19904;-70
2022/01/10 14:15:53;;;;;;;;;;;11.80;55.50;;;;;;5082414;28;20232;-70
2022/01/10 14:18:19;;;;;;;;;;;11.70;55.50;;;;;;5082472;28;20238;-70
2022/01/10 14:20:45;;;;;;;;;;;11.80;55.70;;;;;;5082325;28;19917;-71
2022/01/10 14:23:11;;;;;;;;;;;11.70;55.60;;;;;;5082381;28;20209;-70
2022/01/10 14:25:37;;;;;;;;;;;11.80;55.60;;;;;;5082331;28;19905;-71